Terminal Aerodrome Forecast
Issued by NWS Omaha/Valley, NE

Home | Current Version | Previous Version | Graphics & Text | Print | Product List | Glossary On
Versions: 1 2 3 4 5 6 7 8 9 10 11 12 13 14 15 16 17 18 19 20 21 22 23 24
000
FTUS43 KOAX 260520
TAFOFK
TAF
KOFK 260520Z 2606/2706 34009KT P6SM OVC007
      TEMPO 2606/2609 4SM -SHRA BR
     FM261100 33009KT P6SM OVC008
     FM261300 33008KT P6SM OVC015
     FM261600 34009KT P6SM BKN035
     FM270100 35004KT P6SM FEW250=

USA.gov is the U.S. government's official web portal to all federal, state and local government web resources and services.